Time;durP1;ratioP1;P1;durP2;ratioP2;P2;SDS_P1;SDS_P2;PMS_P1;PMS_P2;Temp;Humidity;BMP_temperature;BMP_pressure;BME280_temperature;BME280_humidity;BME280_pressure;Samples;Min_cycle;Max_cycle;Signal;HPM_P1;HPM_P2
2022/12/28 00:01:37;;;;;;;;;;;6.10;99.90;;;;;;5121780;27;19920;-48
2022/12/28 00:04:05;;;;;;;;;;;6.00;99.90;;;;;;5114144;28;20366;-47
2022/12/28 00:06:31;;;;;;;;;;;6.00;99.90;;;;;;5112858;28;19916;-48
2022/12/28 00:08:57;;;;;;;;;;;6.00;99.90;;;;;;5114088;28;19915;-46
2022/12/28 00:11:23;;;;;;;;;;;6.10;99.90;;;;;;5114500;28;19984;-48
2022/12/28 00:13:49;;;;;;;;;;;6.40;99.90;;;;;;5108981;28;19920;-49
2022/12/28 00:16:34;;;;;;;;;;;6.00;99.90;;;;;;5114116;27;19916;-48
2022/12/28 00:19:00;;;;;;;;;;;5.90;99.90;;;;;;5112484;28;19923;-48
2022/12/28 00:21:26;;;;;;;;;;;5.90;99.90;;;;;;5112209;28;19923;-47
2022/12/28 00:23:53;;;;;;;;;;;5.90;99.90;;;;;;5112748;28;19944;-47
2022/12/28 00:26:19;;;;;;;;;;;6.20;99.90;;;;;;5113752;27;19966;-47
2022/12/28 00:28:45;;;;;;;;;;;6.00;99.90;;;;;;5113831;28;20018;-47
2022/12/28 00:31:11;;;;;;;;;;;6.10;99.90;;;;;;5113235;28;19942;-48
2022/12/28 00:33:36;;;;;;;;;;;6.10;99.90;;;;;;5113765;27;19930;-48
2022/12/28 00:36:02;;;;;;;;;;;6.10;99.90;;;;;;5114017;28;19942;-48
2022/12/28 00:38:30;;;;;;;;;;;5.90;99.90;;;;;;5114053;27;19922;-48
2022/12/28 00:40:56;;;;;;;;;;;6.20;99.90;;;;;;5113763;28;19961;-48
2022/12/28 00:43:21;;;;;;;;;;;6.10;99.90;;;;;;5113680;28;19955;-46
2022/12/28 00:45:47;;;;;;;;;;;6.20;99.90;;;;;;5113331;28;20384;-47
2022/12/28 00:48:14;;;;;;;;;;;6.20;99.90;;;;;;5113101;28;19923;-48
2022/12/28 00:50:40;;;;;;;;;;;6.20;99.90;;;;;;5113555;28;19968;-49
2022/12/28 00:53:06;;;;;;;;;;;6.00;99.90;;;;;;5113655;28;20366;-48
2022/12/28 00:55:32;;;;;;;;;;;6.00;99.90;;;;;;5113284;27;19922;-48
2022/12/28 00:57:57;;;;;;;;;;;6.30;99.90;;;;;;5113170;28;19956;-50
2022/12/28 01:00:23;;;;;;;;;;;6.40;99.90;;;;;;5113333;28;19969;-48
2022/12/28 01:02:49;;;;;;;;;;;6.00;99.90;;;;;;5112952;27;19961;-46
2022/12/28 01:05:14;;;;;;;;;;;6.10;99.90;;;;;;5112903;28;20367;-47
2022/12/28 01:07:40;;;;;;;;;;;6.10;99.90;;;;;;5113295;28;19920;-49
2022/12/28 01:10:06;;;;;;;;;;;6.00;99.90;;;;;;5113288;27;19920;-49
2022/12/28 01:12:32;;;;;;;;;;;6.20;99.90;;;;;;5113080;28;19938;-52
2022/12/28 01:14:58;;;;;;;;;;;6.20;99.90;;;;;;5113323;28;20362;-49
2022/12/28 01:17:23;;;;;;;;;;;6.10;99.90;;;;;;5112625;27;20409;-46
2022/12/28 01:19:49;;;;;;;;;;;6.30;99.90;;;;;;5112283;28;19926;-49
2022/12/28 01:22:14;;;;;;;;;;;6.20;99.90;;;;;;5112642;28;19915;-46
2022/12/28 01:24:40;;;;;;;;;;;6.10;99.90;;;;;;5113014;27;19916;-46
2022/12/28 01:27:05;;;;;;;;;;;6.20;99.90;;;;;;5113047;28;19920;-46
2022/12/28 01:29:31;;;;;;;;;;;6.00;99.90;;;;;;5113035;28;20065;-48
2022/12/28 01:31:57;;;;;;;;;;;6.40;99.90;;;;;;5113054;27;20370;-47
2022/12/28 01:34:22;;;;;;;;;;;6.30;99.90;;;;;;5112609;28;19925;-46
2022/12/28 01:36:48;;;;;;;;;;;6.20;99.90;;;;;;5112562;27;19916;-46
2022/12/28 01:39:14;;;;;;;;;;;6.20;99.90;;;;;;5112629;27;19922;-47
2022/12/28 01:41:40;;;;;;;;;;;6.40;99.90;;;;;;5112115;27;20374;-47
2022/12/28 01:44:06;;;;;;;;;;;6.40;99.90;;;;;;5111536;27;19916;-49
2022/12/28 01:46:50;;;;;;;;;;;6.30;99.90;;;;;;5111186;28;19919;-47
2022/12/28 01:49:23;;;;;;;;;;;6.30;99.90;;;;;;5111809;27;19927;-50
2022/12/28 01:51:52;;;;;;;;;;;6.40;99.90;;;;;;5111767;28;19971;-47
2022/12/28 01:54:18;;;;;;;;;;;6.40;99.90;;;;;;5110957;28;19919;-49
2022/12/28 01:56:44;;;;;;;;;;;6.40;99.90;;;;;;5112056;28;20282;-47
2022/12/28 01:59:10;;;;;;;;;;;6.40;99.90;;;;;;5112131;28;20299;-47
2022/12/28 02:01:36;;;;;;;;;;;6.30;99.90;;;;;;5111107;28;19922;-48
2022/12/28 02:04:02;;;;;;;;;;;6.40;99.90;;;;;;5112177;28;20349;-48
2022/12/28 02:06:27;;;;;;;;;;;6.30;99.90;;;;;;5122654;27;20375;-49
2022/12/28 02:09:28;;;;;;;;;;;6.90;99.90;;;;;;5112010;27;19959;-48
2022/12/28 02:11:54;;;;;;;;;;;6.50;99.90;;;;;;5048411;28;19936;-47
2022/12/28 02:14:20;;;;;;;;;;;6.60;99.90;;;;;;5103066;27;19919;-47
2022/12/28 02:16:46;;;;;;;;;;;6.70;99.90;;;;;;5111662;27;19930;-47
2022/12/28 02:19:13;;;;;;;;;;;7.30;99.90;;;;;;5111635;28;19915;-49
2022/12/28 02:21:41;;;;;;;;;;;6.70;99.90;;;;;;5111994;28;19915;-47
2022/12/28 02:24:26;;;;;;;;;;;6.60;99.90;;;;;;5111756;28;19926;-49
2022/12/28 02:27:15;;;;;;;;;;;6.50;99.90;;;;;;5111642;28;19916;-47
2022/12/28 02:29:41;;;;;;;;;;;6.60;99.90;;;;;;5111401;28;19938;-47
2022/12/28 02:32:17;;;;;;;;;;;6.50;99.90;;;;;;5110050;27;19923;-49
2022/12/28 02:34:58;;;;;;;;;;;6.50;99.90;;;;;;5110923;28;19946;-49
2022/12/28 02:37:26;;;;;;;;;;;6.60;99.90;;;;;;5110470;28;20006;-49
2022/12/28 02:39:56;;;;;;;;;;;6.60;99.90;;;;;;5111421;28;19922;-48
2022/12/28 02:42:23;;;;;;;;;;;6.70;99.90;;;;;;5111703;28;19950;-49
2022/12/28 02:50:17;;;;;;;;;;;6.70;99.90;;;;;;5110489;28;20011;-49
2022/12/28 02:52:46;;;;;;;;;;;6.70;99.90;;;;;;5110814;28;20001;-47
2022/12/28 02:58:29;;;;;;;;;;;6.80;99.90;;;;;;5110377;28;19919;-46
2022/12/28 03:01:13;;;;;;;;;;;6.80;99.90;;;;;;5110828;28;19916;-49
2022/12/28 03:03:42;;;;;;;;;;;6.90;99.90;;;;;;5111332;28;19919;-46
2022/12/28 03:09:06;;;;;;;;;;;6.70;99.90;;;;;;5110769;28;19965;-47
2022/12/28 03:11:35;;;;;;;;;;;6.90;99.90;;;;;;5111078;28;19916;-47
2022/12/28 03:14:02;;;;;;;;;;;6.80;99.90;;;;;;5110958;28;19920;-46
2022/12/28 03:16:30;;;;;;;;;;;6.70;99.90;;;;;;5109272;28;19916;-50
2022/12/28 03:32:54;;;;;;;;;;;6.90;99.90;;;;;;5110534;28;19934;-51
2022/12/28 03:35:22;;;;;;;;;;;6.90;99.90;;;;;;5110911;28;19916;-50
2022/12/28 03:37:51;;;;;;;;;;;7.50;99.90;;;;;;5119380;28;19916;-49
2022/12/28 03:40:22;;;;;;;;;;;7.00;99.90;;;;;;5110018;28;20263;-49
2022/12/28 03:45:36;;;;;;;;;;;6.80;99.90;;;;;;5108947;28;19926;-49
2022/12/28 03:48:02;;;;;;;;;;;6.50;99.90;;;;;;5110317;28;19931;-49
2022/12/28 03:50:29;;;;;;;;;;;6.70;99.90;;;;;;5110476;28;19969;-48
2022/12/28 03:52:56;;;;;;;;;;;7.10;99.90;;;;;;5110749;28;20000;-48
2022/12/28 03:55:22;;;;;;;;;;;6.70;99.90;;;;;;5110414;28;19967;-47
2022/12/28 03:57:48;;;;;;;;;;;6.90;99.90;;;;;;5110944;28;19916;-47
2022/12/28 04:00:14;;;;;;;;;;;6.80;99.90;;;;;;5111053;28;20247;-47
2022/12/28 04:02:39;;;;;;;;;;;6.70;99.90;;;;;;5114896;28;19920;-47
2022/12/28 04:05:05;;;;;;;;;;;6.60;99.90;;;;;;5110514;28;20002;-47
2022/12/28 04:07:31;;;;;;;;;;;7.20;99.90;;;;;;5112854;27;19916;-46
2022/12/28 04:09:56;;;;;;;;;;;6.70;99.90;;;;;;5113707;27;19924;-46
2022/12/28 04:12:22;;;;;;;;;;;6.70;99.90;;;;;;5119863;27;19962;-49
2022/12/28 04:14:47;;;;;;;;;;;7.10;99.90;;;;;;5115116;28;19919;-48
2022/12/28 04:17:13;;;;;;;;;;;6.60;99.90;;;;;;5114055;27;19920;-47
2022/12/28 04:19:38;;;;;;;;;;;6.70;99.90;;;;;;5113875;28;20357;-48
2022/12/28 04:22:04;;;;;;;;;;;7.00;99.90;;;;;;5113858;28;19915;-48
2022/12/28 04:24:29;;;;;;;;;;;7.30;99.90;;;;;;5114272;27;19928;-49
2022/12/28 04:26:55;;;;;;;;;;;6.80;99.90;;;;;;5114219;28;20364;-47
2022/12/28 04:29:21;;;;;;;;;;;6.80;99.90;;;;;;5114132;28;19915;-48
2022/12/28 04:31:46;;;;;;;;;;;7.20;99.90;;;;;;5113686;28;20043;-48
2022/12/28 04:34:12;;;;;;;;;;;7.40;99.90;;;;;;5114002;28;20359;-47
2022/12/28 04:36:41;;;;;;;;;;;7.40;99.90;;;;;;5113940;28;19929;-46
2022/12/28 04:39:07;;;;;;;;;;;7.30;99.90;;;;;;5113807;27;20002;-47
2022/12/28 04:41:33;;;;;;;;;;;6.80;99.90;;;;;;5113737;27;20430;-47
2022/12/28 04:43:58;;;;;;;;;;;7.00;99.90;;;;;;5112953;27;20010;-48
2022/12/28 04:46:24;;;;;;;;;;;7.40;99.90;;;;;;5120329;27;20271;-46
2022/12/28 04:48:50;;;;;;;;;;;6.90;99.90;;;;;;5111769;28;20358;-47
2022/12/28 04:51:18;;;;;;;;;;;6.90;99.90;;;;;;5114221;28;19923;-48
2022/12/28 04:53:43;;;;;;;;;;;7.50;99.90;;;;;;5113054;28;19926;-47
2022/12/28 04:56:10;;;;;;;;;;;7.00;99.90;;;;;;5113465;28;19919;-49
2022/12/28 04:58:36;;;;;;;;;;;7.60;99.90;;;;;;5114115;27;19960;-49
2022/12/28 05:01:06;;;;;;;;;;;7.00;99.90;;;;;;5113490;28;19927;-48
2022/12/28 05:03:31;;;;;;;;;;;7.30;99.90;;;;;;5113770;28;19916;-48
2022/12/28 05:06:04;;;;;;;;;;;7.40;99.90;;;;;;5132629;27;19919;-49
2022/12/28 05:08:34;;;;;;;;;;;7.40;99.90;;;;;;5114016;27;19919;-49
2022/12/28 05:11:00;;;;;;;;;;;7.50;99.90;;;;;;5113160;28;19923;-49
2022/12/28 05:13:26;;;;;;;;;;;7.70;99.90;;;;;;5112202;27;19916;-47
2022/12/28 05:15:51;;;;;;;;;;;7.70;99.90;;;;;;5113034;27;20370;-49
2022/12/28 05:18:17;;;;;;;;;;;7.90;99.90;;;;;;5111651;27;19924;-48
2022/12/28 05:20:42;;;;;;;;;;;7.70;99.90;;;;;;5112982;28;20286;-47
2022/12/28 05:23:08;;;;;;;;;;;8.00;99.90;;;;;;5112676;28;19988;-50
2022/12/28 05:25:33;;;;;;;;;;;7.90;99.90;;;;;;5113772;27;19922;-48
2022/12/28 05:27:59;;;;;;;;;;;7.30;99.90;;;;;;5112984;28;19919;-48
2022/12/28 05:30:25;;;;;;;;;;;7.50;99.90;;;;;;5113195;28;19973;-48
2022/12/28 05:32:50;;;;;;;;;;;7.70;99.90;;;;;;5110082;28;20303;-46
2022/12/28 05:35:16;;;;;;;;;;;7.50;99.90;;;;;;5112476;28;19919;-48
2022/12/28 05:37:41;;;;;;;;;;;7.40;99.90;;;;;;5113340;27;20200;-49
2022/12/28 05:40:07;;;;;;;;;;;7.70;99.90;;;;;;5112637;28;19963;-51
2022/12/28 05:42:33;;;;;;;;;;;8.10;99.90;;;;;;5114308;27;19965;-49
2022/12/28 05:44:59;;;;;;;;;;;7.50;99.90;;;;;;5111250;28;19920;-48
2022/12/28 05:47:25;;;;;;;;;;;7.90;99.90;;;;;;5112368;27;19972;-51
2022/12/28 05:49:50;;;;;;;;;;;8.20;99.90;;;;;;5112026;28;19928;-48
2022/12/28 05:52:16;;;;;;;;;;;7.80;99.90;;;;;;5112860;28;19915;-48
2022/12/28 05:54:41;;;;;;;;;;;8.10;99.90;;;;;;5112474;28;20384;-48
2022/12/28 05:57:07;;;;;;;;;;;8.10;99.90;;;;;;5112264;27;19968;-47
2022/12/28 05:59:32;;;;;;;;;;;7.70;99.90;;;;;;5112044;28;19923;-47
2022/12/28 06:01:58;;;;;;;;;;;7.80;99.90;;;;;;5111961;27;19937;-45
2022/12/28 06:04:24;;;;;;;;;;;8.00;99.90;;;;;;5112218;28;19930;-48
2022/12/28 06:06:49;;;;;;;;;;;7.70;99.90;;;;;;5110188;28;19941;-49
2022/12/28 06:09:15;;;;;;;;;;;8.10;99.90;;;;;;5111653;28;19915;-50
2022/12/28 06:11:41;;;;;;;;;;;7.80;99.90;;;;;;5111700;27;19927;-47
2022/12/28 06:14:07;;;;;;;;;;;7.80;99.90;;;;;;5112079;28;19994;-47
2022/12/28 06:16:35;;;;;;;;;;;8.40;99.90;;;;;;5118827;27;20342;-47
2022/12/28 06:19:07;;;;;;;;;;;8.30;99.90;;;;;;5108980;28;19916;-48
2022/12/28 06:21:33;;;;;;;;;;;7.90;99.90;;;;;;5111336;28;19970;-47
2022/12/28 06:24:01;;;;;;;;;;;8.00;99.90;;;;;;5113762;27;20010;-46
2022/12/28 06:26:27;;;;;;;;;;;8.30;99.90;;;;;;5111921;28;19916;-48
2022/12/28 06:28:53;;;;;;;;;;;8.40;99.90;;;;;;5111015;27;19982;-48
2022/12/28 06:31:20;;;;;;;;;;;8.20;99.90;;;;;;5111279;28;19931;-47
2022/12/28 06:33:46;;;;;;;;;;;7.90;99.90;;;;;;5111446;28;20002;-47
2022/12/28 06:36:12;;;;;;;;;;;7.80;99.90;;;;;;5112307;28;19915;-49
2022/12/28 06:38:38;;;;;;;;;;;8.00;99.90;;;;;;5111998;28;19915;-49
2022/12/28 06:41:04;;;;;;;;;;;8.30;99.90;;;;;;5111379;28;19983;-47
2022/12/28 06:43:30;;;;;;;;;;;8.50;99.90;;;;;;5111289;28;19922;-48
2022/12/28 06:45:56;;;;;;;;;;;7.90;99.90;;;;;;5111600;28;20255;-47
2022/12/28 06:48:22;;;;;;;;;;;8.40;99.90;;;;;;5111801;27;19931;-48
2022/12/28 06:50:57;;;;;;;;;;;8.50;99.90;;;;;;5110200;28;19942;-46
2022/12/28 06:53:23;;;;;;;;;;;8.50;99.90;;;;;;5111294;28;20360;-48
2022/12/28 06:55:56;;;;;;;;;;;8.50;99.90;;;;;;5111404;28;19955;-47
2022/12/28 06:58:22;;;;;;;;;;;8.10;99.90;;;;;;5111103;28;19920;-50
2022/12/28 07:00:47;;;;;;;;;;;8.60;99.90;;;;;;5110984;28;19922;-49
2022/12/28 07:03:13;;;;;;;;;;;7.90;99.90;;;;;;5109267;28;19919;-46
2022/12/28 07:05:38;;;;;;;;;;;8.60;99.90;;;;;;5110891;28;19927;-48
2022/12/28 07:08:04;;;;;;;;;;;7.90;99.90;;;;;;5110722;28;19963;-48
2022/12/28 07:10:31;;;;;;;;;;;8.50;99.90;;;;;;5113205;27;19926;-48
2022/12/28 07:12:56;;;;;;;;;;;8.60;99.90;;;;;;5114955;27;20542;-48
2022/12/28 07:15:22;;;;;;;;;;;7.40;99.90;;;;;;5111291;28;19926;-48
2022/12/28 07:17:48;;;;;;;;;;;8.00;99.90;;;;;;5111078;28;20397;-51
2022/12/28 07:20:13;;;;;;;;;;;8.50;99.90;;;;;;5110845;28;20453;-50
2022/12/28 07:22:39;;;;;;;;;;;8.40;99.90;;;;;;5110467;28;19939;-47
2022/12/28 07:25:05;;;;;;;;;;;8.10;99.90;;;;;;5110792;28;20012;-47
2022/12/28 07:27:30;;;;;;;;;;;8.60;99.90;;;;;;5111033;28;19915;-50
2022/12/28 07:29:56;;;;;;;;;;;8.20;99.90;;;;;;5114253;28;19920;-51
2022/12/28 07:32:21;;;;;;;;;;;8.60;99.90;;;;;;5110805;28;19950;-47
2022/12/28 07:34:47;;;;;;;;;;;8.70;99.90;;;;;;5110748;28;20277;-48
2022/12/28 07:37:12;;;;;;;;;;;8.60;99.90;;;;;;5110482;28;19968;-48
2022/12/28 07:39:38;;;;;;;;;;;8.20;99.90;;;;;;5110965;27;19915;-47
2022/12/28 07:42:05;;;;;;;;;;;8.70;99.90;;;;;;5112637;28;19919;-47
2022/12/28 07:44:31;;;;;;;;;;;8.80;99.90;;;;;;5114653;27;19968;-47
2022/12/28 07:46:57;;;;;;;;;;;8.70;99.90;;;;;;5113602;28;19923;-48
2022/12/28 07:49:22;;;;;;;;;;;8.70;99.90;;;;;;5114251;27;19968;-49
2022/12/28 07:51:48;;;;;;;;;;;8.30;99.90;;;;;;5114604;28;20374;-49
2022/12/28 07:54:13;;;;;;;;;;;8.60;99.90;;;;;;5114695;28;19923;-49
2022/12/28 07:56:39;;;;;;;;;;;8.90;99.90;;;;;;5114501;28;19915;-48
2022/12/28 07:59:05;;;;;;;;;;;8.30;99.90;;;;;;5114626;28;19927;-47
2022/12/28 08:01:32;;;;;;;;;;;8.30;99.90;;;;;;5119013;27;20016;-49
2022/12/28 08:03:59;;;;;;;;;;;8.80;99.90;;;;;;5123268;27;19915;-47
2022/12/28 08:06:25;;;;;;;;;;;8.30;99.90;;;;;;5114361;28;19915;-49
2022/12/28 08:08:52;;;;;;;;;;;8.80;99.90;;;;;;5114696;27;20002;-48
2022/12/28 08:11:20;;;;;;;;;;;8.20;99.90;;;;;;5114452;28;19984;-48
2022/12/28 08:13:47;;;;;;;;;;;8.30;99.90;;;;;;5114725;28;19926;-48
2022/12/28 08:16:14;;;;;;;;;;;8.30;99.90;;;;;;5114951;28;20278;-49
2022/12/28 08:18:40;;;;;;;;;;;8.80;99.90;;;;;;5112655;27;19915;-50
2022/12/28 08:21:07;;;;;;;;;;;8.60;99.90;;;;;;5114375;28;19915;-47
2022/12/28 08:23:32;;;;;;;;;;;8.70;99.90;;;;;;5113978;28;19922;-48
2022/12/28 08:26:05;;;;;;;;;;;8.90;99.90;;;;;;5114303;28;19920;-50
2022/12/28 08:28:31;;;;;;;;;;;8.60;99.90;;;;;;5114425;28;20003;-49
2022/12/28 08:30:57;;;;;;;;;;;8.30;99.90;;;;;;5130830;27;20000;-47
2022/12/28 08:33:22;;;;;;;;;;;8.80;99.90;;;;;;5111192;28;19920;-49
2022/12/28 08:35:48;;;;;;;;;;;8.40;99.90;;;;;;5113570;27;20355;-47
2022/12/28 08:38:13;;;;;;;;;;;9.00;99.90;;;;;;5114053;27;19924;-47
2022/12/28 08:40:39;;;;;;;;;;;8.40;99.90;;;;;;5117143;27;19974;-48
2022/12/28 08:43:04;;;;;;;;;;;9.10;99.90;;;;;;5114660;28;19924;-47
2022/12/28 08:45:30;;;;;;;;;;;8.40;99.90;;;;;;5114531;28;20029;-49
2022/12/28 08:47:55;;;;;;;;;;;8.50;99.90;;;;;;5122512;27;19916;-49
2022/12/28 08:50:21;;;;;;;;;;;8.50;99.90;;;;;;5111172;28;19988;-49
2022/12/28 08:52:47;;;;;;;;;;;9.10;99.90;;;;;;5113400;27;19962;-50
2022/12/28 08:55:12;;;;;;;;;;;8.50;99.90;;;;;;5119129;27;19919;-47
2022/12/28 08:57:38;;;;;;;;;;;8.50;99.90;;;;;;5112345;28;19944;-47
2022/12/28 09:00:04;;;;;;;;;;;9.10;99.90;;;;;;5116442;27;20385;-49
2022/12/28 09:02:30;;;;;;;;;;;8.60;99.90;;;;;;5105706;27;19931;-48
2022/12/28 09:04:55;;;;;;;;;;;9.00;99.90;;;;;;5099123;27;19915;-52
2022/12/28 09:21:55;;;;;;;14.50;11.40;;;9.10;99.90;;;;;;5045365;27;1289917;-49
2022/12/28 09:24:22;;;;;;;15.10;11.05;;;9.20;99.90;;;;;;5075933;28;20127;-47
2022/12/28 09:26:49;;;;;;;16.23;11.57;;;8.80;99.90;;;;;;5076276;28;20619;-49
2022/12/28 09:29:15;;;;;;;15.48;11.52;;;8.80;99.90;;;;;;5077502;28;20056;-48
2022/12/28 09:31:41;;;;;;;17.98;11.75;;;8.70;99.90;;;;;;5076820;28;20090;-47
2022/12/28 09:34:11;;;;;;;14.35;12.00;;;8.80;99.90;;;;;;5078125;28;20049;-49
2022/12/28 09:36:43;;;;;;;16.33;11.90;;;9.00;99.90;;;;;;5076389;28;20036;-48
2022/12/28 09:39:12;;;;;;;15.38;12.10;;;8.70;99.90;;;;;;5074862;28;20486;-51
2022/12/28 09:41:41;;;;;;;16.35;11.85;;;9.40;99.90;;;;;;5075930;28;20024;-51
2022/12/28 09:44:16;;;;;;;15.98;11.65;;;8.80;99.90;;;;;;5076194;28;20039;-51
2022/12/28 09:47:05;;;;;;;15.10;10.77;;;9.20;99.90;;;;;;5075746;28;20636;-49
2022/12/28 09:50:07;;;;;;;14.52;10.50;;;9.10;99.90;;;;;;5028456;28;20080;-49
2022/12/28 09:53:08;;;;;;;14.57;11.25;;;9.00;99.90;;;;;;5042778;28;20048;-50
2022/12/28 09:55:38;;;;;;;15.90;11.27;;;9.40;99.90;;;;;;5070178;28;20036;-47
2022/12/28 09:58:12;;;;;;;17.13;11.43;;;8.90;99.90;;;;;;5077081;28;20638;-51
2022/12/28 10:00:41;;;;;;;;;;;9.40;99.90;;;;;;5075631;28;20112;-50
2022/12/28 10:03:33;;;;;;;13.13;10.35;;;9.30;99.90;;;;;;5075472;28;19920;-49
2022/12/28 10:05:59;;;;;;;17.85;12.07;;;9.20;99.90;;;;;;5075898;28;20039;-47
2022/12/28 10:08:26;;;;;;;18.38;12.48;;;8.80;99.90;;;;;;5072803;28;20040;-48
2022/12/28 10:10:54;;;;;;;18.98;13.60;;;9.10;99.90;;;;;;5076893;28;20024;-49
2022/12/28 10:13:23;;;;;;;18.77;14.07;;;8.80;99.90;;;;;;5074810;28;20085;-51
2022/12/28 10:15:50;;;;;;;19.00;14.15;;;8.80;99.90;;;;;;5074354;28;20479;-48
2022/12/28 10:18:26;;;;;;;17.88;13.88;;;8.80;99.90;;;;;;5078176;28;20139;-47
2022/12/28 10:20:54;;;;;;;17.60;13.73;;;9.40;99.90;;;;;;5069744;28;20157;-47
2022/12/28 10:23:26;;;;;;;17.73;13.38;;;9.20;99.90;;;;;;5060250;28;20522;-49
2022/12/28 10:25:55;;;;;;;15.52;12.38;;;9.30;99.90;;;;;;5062097;28;20492;-49
2022/12/28 10:28:25;;;;;;;15.77;12.52;;;9.10;99.90;;;;;;5062949;28;20036;-48
2022/12/28 10:31:10;;;;;;;17.90;12.18;;;9.00;99.90;;;;;;5063452;28;20044;-47
2022/12/28 10:33:41;;;;;;;17.45;12.63;;;9.20;99.90;;;;;;5062454;28;20029;-48
2022/12/28 10:36:15;;;;;;;16.25;12.60;;;9.40;99.90;;;;;;5057578;28;20395;-51
2022/12/28 10:38:48;;;;;;;17.35;11.90;;;9.30;99.90;;;;;;5061172;28;20078;-47
2022/12/28 10:41:15;;;;;;;14.50;11.10;;;8.90;99.90;;;;;;5063723;28;20040;-49
2022/12/28 10:43:45;;;;;;;15.25;11.73;;;8.80;99.90;;;;;;5061850;28;20059;-47
2022/12/28 10:46:17;;;;;;;15.23;11.77;;;9.40;99.90;;;;;;5061982;28;20036;-48
2022/12/28 10:48:48;;;;;;;13.23;10.63;;;8.70;99.90;;;;;;5060791;28;20395;-47
2022/12/28 10:51:17;;;;;;;15.45;10.77;;;9.20;99.90;;;;;;5061570;28;20063;-52
2022/12/28 10:53:50;;;;;;;13.80;10.25;;;9.40;99.90;;;;;;5058722;28;20032;-47
2022/12/28 10:56:31;;;;;;;14.55;10.60;;;9.30;99.90;;;;;;5060027;28;20045;-49
2022/12/28 10:59:23;;;;;;;13.90;10.70;;;9.30;99.90;;;;;;5059177;28;20508;-46
2022/12/28 11:01:49;;;;;;;13.43;10.02;;;8.70;99.90;;;;;;5059396;28;20115;-46
2022/12/28 11:04:22;;;;;;;14.50;10.60;;;9.20;99.90;;;;;;5060832;28;20058;-50
2022/12/28 11:06:55;;;;;;;13.85;9.98;;;8.80;99.90;;;;;;5060341;28;20095;-48
2022/12/28 11:09:31;;;;;;;14.65;10.30;;;8.80;99.90;;;;;;5062963;28;20506;-49
2022/12/28 11:12:40;;;;;;;16.20;10.70;;;9.40;99.90;;;;;;5062035;28;20025;-49
2022/12/28 11:15:12;;;;;;;15.13;10.45;;;9.40;99.90;;;;;;5000045;28;20061;-47
2022/12/28 11:17:37;;;;;;;12.77;10.02;;;9.20;99.90;;;;;;4983663;28;20046;-47
2022/12/28 11:20:08;;;;;;;13.35;10.30;;;9.40;99.90;;;;;;5032510;28;20050;-47
2022/12/28 11:22:34;;;;;;;13.18;10.15;;;8.80;99.90;;;;;;5059675;28;20063;-47
2022/12/28 11:25:01;;;;;;;13.40;9.82;;;9.00;99.90;;;;;;5057023;28;20462;-50
2022/12/28 11:27:27;;;;;;;13.88;9.85;;;8.80;99.90;;;;;;5059214;28;20040;-46
2022/12/28 11:29:54;;;;;;;11.90;9.60;;;8.90;99.90;;;;;;5058255;28;20139;-47
2022/12/28 11:32:38;;;;;;;12.35;9.55;;;8.80;99.90;;;;;;5040421;28;20448;-48
2022/12/28 11:35:05;;;;;;;13.40;10.55;;;9.30;99.90;;;;;;5061083;28;20042;-49
2022/12/28 11:37:31;;;;;;;13.65;10.20;;;8.80;99.90;;;;;;5060116;28;20044;-46
2022/12/28 11:39:57;;;;;;;13.05;10.45;;;8.80;99.90;;;;;;5066126;28;20481;-47
2022/12/28 11:42:35;;;;;;;12.82;10.13;;;8.90;99.90;;;;;;5072067;28;20057;-50
2022/12/28 11:45:04;;;;;;;13.90;10.75;;;9.10;99.90;;;;;;5071977;28;20123;-46
2022/12/28 11:47:33;;;;;;;14.25;10.88;;;8.90;99.90;;;;;;5069338;28;20040;-45
2022/12/28 11:50:33;;;;;;;13.73;10.82;;;9.10;99.90;;;;;;5074569;28;20055;-47
2022/12/28 11:53:00;;;;;;;13.88;10.82;;;9.20;99.90;;;;;;5075314;28;20036;-47
2022/12/28 11:56:03;;;;;;;14.05;10.13;;;9.20;99.90;;;;;;5073402;28;20054;-49
2022/12/28 11:58:29;;;;;;;13.52;10.35;;;9.30;99.90;;;;;;5071358;28;20041;-48
2022/12/28 12:00:56;;;;;;;13.13;9.90;;;8.80;99.90;;;;;;5074354;28;20039;-47
2022/12/28 12:03:56;;;;;;;13.20;9.90;;;9.40;99.90;;;;;;5066835;28;20040;-45
2022/12/28 12:06:40;;;;;;;12.57;9.68;;;8.80;99.90;;;;;;5070688;28;20055;-45
2022/12/28 12:09:22;;;;;;;;;;;9.40;99.90;;;;;;5066176;28;20094;-49
2022/12/28 12:11:56;;;;;;;14.00;8.98;;;9.40;99.90;;;;;;5067307;28;19924;-45
2022/12/28 12:14:34;;;;;;;11.10;8.80;;;9.40;99.90;;;;;;5071987;28;20507;-49
2022/12/28 12:17:04;;;;;;;11.43;8.23;;;8.80;99.90;;;;;;5062056;28;20298;-47
2022/12/28 12:19:36;;;;;;;10.90;7.75;;;9.50;99.90;;;;;;5069042;28;20048;-52
2022/12/28 12:22:22;;;;;;;11.60;8.10;;;8.80;99.90;;;;;;5068663;28;20060;-48
2022/12/28 12:25:01;;;;;;;8.90;7.15;;;8.90;99.90;;;;;;5067509;28;20079;-46
2022/12/28 12:27:35;;;;;;;9.63;7.28;;;9.20;99.90;;;;;;5068184;28;20131;-50
2022/12/28 12:30:17;;;;;;;9.07;6.40;;;8.80;99.90;;;;;;5069682;28;20079;-49
2022/12/28 12:32:48;;;;;;;8.57;6.15;;;9.50;99.90;;;;;;5068490;28;20036;-46
2022/12/28 12:35:17;;;;;;;8.57;6.32;;;8.80;99.90;;;;;;5066018;28;20033;-46
2022/12/28 12:38:04;;;;;;;8.90;5.97;;;8.80;99.90;;;;;;5068330;28;20535;-47
2022/12/28 12:40:50;;;;;;;7.28;5.32;;;9.50;99.90;;;;;;5068937;28;20139;-49
2022/12/28 12:43:42;;;;;;;7.82;5.82;;;9.10;99.90;;;;;;5069587;28;20526;-47
2022/12/28 12:46:36;;;;;;;9.02;6.15;;;9.30;99.90;;;;;;5069019;28;20048;-48
2022/12/28 12:49:56;;;;;;;8.23;5.70;;;9.30;99.90;;;;;;5069678;28;20055;-48
2022/12/28 12:53:02;;;;;;;7.57;5.65;;;9.50;99.90;;;;;;5021822;28;20045;-48
2022/12/28 12:56:05;;;;;;;7.38;5.25;;;9.40;99.90;;;;;;5068546;28;20097;-48
2022/12/28 12:58:44;;;;;;;6.53;4.93;;;9.40;99.90;;;;;;5068200;28;20135;-45
2022/12/28 13:01:23;;;;;;;7.32;5.15;;;9.50;99.90;;;;;;5068441;28;20054;-47
2022/12/28 13:03:51;;;;;;;9.10;4.88;;;9.50;99.90;;;;;;5069853;28;20048;-48
2022/12/28 13:06:23;;;;;;;6.68;4.72;;;9.50;99.90;;;;;;5069569;28;20039;-48
2022/12/28 13:08:56;;;;;;;6.43;4.80;;;8.90;99.90;;;;;;5069470;28;20044;-49
2022/12/28 13:11:23;;;;;;;6.65;5.10;;;9.50;99.90;;;;;;5069685;28;20044;-45
2022/12/28 13:13:51;;;;;;;7.78;5.07;;;9.50;99.90;;;;;;5071102;28;20128;-47
2022/12/28 13:16:20;;;;;;;6.68;4.97;;;9.30;99.90;;;;;;5069044;28;20039;-48
2022/12/28 13:18:59;;;;;;;7.28;5.35;;;9.40;99.90;;;;;;5069813;28;20107;-47
2022/12/28 13:21:27;;;;;;;6.13;4.97;;;9.40;99.90;;;;;;5072453;28;20056;-49
2022/12/28 13:23:53;;;;;;;6.57;5.03;;;9.50;99.90;;;;;;5069123;28;20506;-47
2022/12/28 13:26:27;;;;;;;7.80;5.25;;;9.20;99.90;;;;;;5071574;28;20076;-47
2022/12/28 13:29:00;;;;;;;6.35;4.72;;;9.30;99.90;;;;;;5068288;28;20453;-48
2022/12/28 13:31:37;;;;;;;7.05;4.95;;;9.40;99.90;;;;;;5069911;28;20044;-46
2022/12/28 13:34:25;;;;;;;6.43;4.70;;;9.00;99.90;;;;;;5070064;28;20044;-47
2022/12/28 13:36:53;;;;;;;6.22;4.40;;;9.10;99.90;;;;;;5058669;28;20044;-49
2022/12/28 13:39:20;;;;;;;6.65;4.60;;;9.60;99.90;;;;;;5065391;28;20078;-46
2022/12/28 13:41:54;;;;;;;6.63;4.60;;;9.20;99.90;;;;;;5066714;28;20044;-48
2022/12/28 13:44:27;;;;;;;6.18;4.60;;;9.30;99.90;;;;;;5068688;28;20566;-47
2022/12/28 13:46:57;;;;;;;7.50;4.63;;;8.90;99.90;;;;;;5068173;28;20036;-48
2022/12/28 13:49:25;;;;;;;6.57;5.10;;;9.00;99.90;;;;;;5069768;28;20094;-50
2022/12/28 13:51:51;;;;;;;7.72;5.57;;;9.30;99.90;;;;;;5069493;28;20044;-48
2022/12/28 13:54:17;;;;;;;9.77;5.57;;;9.20;99.90;;;;;;5068292;28;20360;-49
2022/12/28 13:56:44;;;;;;;6.65;4.55;;;9.10;99.90;;;;;;5070842;28;20035;-45
2022/12/28 13:59:16;;;;;;;11.23;5.22;;;8.90;99.90;;;;;;5073808;28;20111;-50
2022/12/28 14:01:48;;;;;;;8.13;5.00;;;9.10;99.90;;;;;;5072439;28;20139;-46
2022/12/28 14:04:19;;;;;;;8.00;4.88;;;9.30;99.90;;;;;;5077542;28;20039;-49
2022/12/28 14:06:45;;;;;;;7.55;4.85;;;9.20;99.90;;;;;;5074509;28;20599;-49
2022/12/28 14:09:14;;;;;;;9.80;5.50;;;9.30;99.90;;;;;;5073206;28;20060;-46
2022/12/28 14:11:44;;;;;;;9.10;5.20;;;8.90;99.90;;;;;;5073725;28;20055;-47
2022/12/28 14:14:11;;;;;;;8.63;5.32;;;9.10;99.90;;;;;;5073495;28;20041;-50
2022/12/28 14:16:38;;;;;;;10.77;6.50;;;8.90;99.90;;;;;;5075116;28;20528;-45
2022/12/28 14:19:05;;;;;;;13.02;6.45;;;9.20;99.90;;;;;;5072167;28;20055;-46
2022/12/28 14:21:39;;;;;;;12.10;5.97;;;9.00;99.90;;;;;;5072798;28;20542;-51
2022/12/28 14:24:11;;;;;;;12.82;6.95;;;9.20;99.90;;;;;;5073411;28;20399;-49
2022/12/28 14:26:45;;;;;;;10.20;6.43;;;9.20;99.90;;;;;;5073598;28;20049;-48
2022/12/28 14:29:18;;;;;;;9.73;6.70;;;9.00;99.90;;;;;;5073218;28;20060;-47
2022/12/28 14:31:44;;;;;;;11.27;7.00;;;9.30;99.90;;;;;;5068581;28;20036;-48
2022/12/28 14:34:26;;;;;;;9.93;6.53;;;9.10;99.90;;;;;;5068882;28;20029;-47
2022/12/28 14:36:53;;;;;;;10.88;6.15;;;9.20;99.90;;;;;;5063847;28;20373;-46
2022/12/28 14:39:42;;;;;;;13.52;6.57;;;9.20;99.90;;;;;;5065776;28;20044;-47
2022/12/28 14:42:19;;;;;;;11.55;7.43;;;9.30;99.90;;;;;;5075554;28;20467;-46
2022/12/28 14:44:45;;;;;;;15.50;6.60;;;9.30;99.90;;;;;;5081047;28;20881;-48
2022/12/28 14:47:33;;;;;;;10.15;6.03;;;9.30;99.90;;;;;;5068282;28;20037;-46